Time;durP1;ratioP1;P1;durP2;ratioP2;P2;SDS_P1;SDS_P2;PMS_P1;PMS_P2;Temp;Humidity;BMP_temperature;BMP_pressure;BME280_temperature;BME280_humidity;BME280_pressure;Samples;Min_cycle;Max_cycle;Signal;HPM_P1;HPM_P2
2024/01/03 00:00:27;;;;;;;6.57;1.33;;;;;;;-148.15;100.00;61821.78;5052039;28;20182;-94
2024/01/03 00:02:54;;;;;;;10.55;1.30;;;;;;;-148.15;100.00;61821.78;5053067;28;20100;-94
2024/01/03 00:05:22;;;;;;;10.10;1.88;;;;;;;-148.15;100.00;61821.78;5052397;28;20028;-93
2024/01/03 00:07:48;;;;;;;12.55;1.50;;;;;;;-148.15;100.00;61821.78;5051655;28;20051;-93
2024/01/03 00:10:38;;;;;;;15.57;1.63;;;;;;;-148.15;100.00;61821.78;5053333;28;20688;-93
2024/01/03 00:13:04;;;;;;;11.10;1.40;;;;;;;-148.15;100.00;61821.78;5047611;28;20024;-93
2024/01/03 00:15:36;;;;;;;9.05;1.38;;;;;;;-148.15;100.00;61821.78;5051830;28;20029;-93
2024/01/03 00:18:04;;;;;;;7.57;1.70;;;;;;;-148.15;100.00;61821.78;5051054;28;20112;-93
2024/01/03 00:20:32;;;;;;;11.55;1.52;;;;;;;-148.15;100.00;61821.78;5052447;28;20032;-92
2024/01/03 00:22:58;;;;;;;10.63;1.48;;;;;;;-148.15;100.00;61821.78;5045369;28;20030;-93
2024/01/03 00:25:29;;;;;;;10.75;1.05;;;;;;;-148.15;100.00;61821.78;5033034;28;20044;-93
2024/01/03 00:27:55;;;;;;;15.77;2.25;;;;;;;-148.15;100.00;61821.78;5058762;28;20036;-93
2024/01/03 00:30:21;;;;;;;9.13;1.67;;;;;;;-148.15;100.00;61821.78;5055776;28;20060;-92
2024/01/03 00:32:47;;;;;;;15.10;1.93;;;;;;;-148.15;100.00;61821.78;5050839;28;20018;-93
2024/01/03 00:35:12;;;;;;;13.47;1.97;;;;;;;-148.15;100.00;61821.78;5055414;28;20112;-92
2024/01/03 00:37:40;;;;;;;15.40;2.00;;;;;;;-148.15;100.00;61821.78;5055365;28;20123;-92
2024/01/03 00:40:31;;;;;;;11.07;1.75;;;;;;;-148.15;100.00;61821.78;5050470;28;20052;-94
2024/01/03 00:42:57;;;;;;;15.50;2.63;;;;;;;-148.15;100.00;61821.78;5047554;28;20113;-93
2024/01/03 00:45:22;;;;;;;14.45;2.45;;;;;;;-148.15;100.00;61821.78;5051801;28;20448;-93
2024/01/03 00:47:48;;;;;;;17.33;2.30;;;;;;;-148.15;100.00;61821.78;5052360;28;20115;-94
2024/01/03 00:50:14;;;;;;;14.10;2.30;;;;;;;-148.15;100.00;61821.78;5051949;28;20659;-95
2024/01/03 00:52:40;;;;;;;21.75;2.83;;;;;;;-148.15;100.00;61821.78;5054229;28;20044;-95
2024/01/03 00:55:08;;;;;;;16.03;2.30;;;;;;;-148.15;100.00;61821.78;5060959;28;20070;-94
2024/01/03 00:57:34;;;;;;;19.90;2.60;;;;;;;-148.15;100.00;61821.78;5066082;28;20116;-94
2024/01/03 01:00:00;;;;;;;16.15;2.47;;;;;;;-148.15;100.00;61821.78;5053309;28;20440;-95
2024/01/03 01:02:26;;;;;;;16.38;2.83;;;;;;;-148.15;100.00;61821.78;5037046;28;20452;-94
2024/01/03 01:04:51;;;;;;;22.97;2.80;;;;;;;-148.15;100.00;61821.78;5045251;28;20033;-94
2024/01/03 01:07:16;;;;;;;21.80;2.50;;;;;;;-148.15;100.00;61821.78;5052035;28;20108;-93
2024/01/03 01:09:42;;;;;;;19.17;3.13;;;;;;;-148.15;100.00;61821.78;5051286;28;20056;-93
2024/01/03 01:12:07;;;;;;;18.45;2.15;;;;;;;-148.15;100.00;61821.78;5039388;28;20425;-94
2024/01/03 01:14:33;;;;;;;18.27;2.87;;;;;;;-148.15;100.00;61821.78;5033063;28;20040;-94
2024/01/03 01:16:58;;;;;;;23.47;3.00;;;;;;;-148.15;100.00;61821.78;5038087;28;20055;-95
2024/01/03 01:19:23;;;;;;;19.97;2.73;;;;;;;-148.15;100.00;61821.78;5056235;28;20036;-94
2024/01/03 01:21:49;;;;;;;28.77;3.13;;;;;;;-148.15;100.00;61821.78;5052317;28;20029;-94
2024/01/03 01:24:15;;;;;;;17.85;2.70;;;;;;;-148.15;100.00;61821.78;5054178;28;20036;-94
2024/01/03 01:26:40;;;;;;;22.13;2.80;;;;;;;-148.15;100.00;61821.78;5053086;28;20025;-95
2024/01/03 01:29:06;;;;;;;21.95;2.70;;;;;;;-148.15;100.00;61821.78;5052716;28;20024;-92
2024/01/03 01:31:31;;;;;;;17.17;3.00;;;;;;;-148.15;100.00;61821.78;5051581;28;20029;-94
2024/01/03 01:33:56;;;;;;;18.97;2.30;;;;;;;-148.15;100.00;61821.78;5052077;28;20469;-94
2024/01/03 01:36:22;;;;;;;22.50;2.80;;;;;;;-148.15;100.00;61821.78;5050723;28;20616;-93
2024/01/03 01:38:48;;;;;;;23.93;3.13;;;;;;;-148.15;100.00;61821.78;5051490;28;20029;-94
2024/01/03 01:41:13;;;;;;;20.83;3.00;;;;;;;-148.15;100.00;61821.78;5051512;28;20017;-94
2024/01/03 01:43:39;;;;;;;17.83;2.90;;;;;;;-148.15;100.00;61821.78;5052204;28;20051;-94
2024/01/03 01:46:04;;;;;;;16.30;2.70;;;;;;;-148.15;100.00;61821.78;5050986;28;20468;-93
2024/01/03 01:48:30;;;;;;;25.15;3.35;;;;;;;-148.15;100.00;61821.78;5051603;28;20025;-94
2024/01/03 01:50:56;;;;;;;25.25;3.58;;;;;;;-148.15;100.00;61821.78;5049955;28;20029;-93
2024/01/03 01:53:22;;;;;;;23.57;2.53;;;;;;;-148.15;100.00;61821.78;5047857;28;20028;-95
2024/01/03 01:55:48;;;;;;;24.42;2.92;;;;;;;-148.15;100.00;61821.78;5051713;28;20025;-93
2024/01/03 01:58:14;;;;;;;17.30;2.28;;;;;;;-148.15;100.00;61821.78;5051956;28;20040;-95
2024/01/03 02:00:41;;;;;;;16.97;2.03;;;;;;;-148.15;100.00;61821.78;5050223;28;20029;-93
2024/01/03 02:03:08;;;;;;;17.88;2.90;;;;;;;-148.15;100.00;61821.78;5052072;28;20098;-94
2024/01/03 02:05:37;;;;;;;17.83;2.60;;;;;;;-148.15;100.00;61821.78;5059860;28;20052;-95
2024/01/03 02:08:04;;;;;;;23.30;2.83;;;;;;;-148.15;100.00;61821.78;5054026;28;20041;-94
2024/01/03 02:10:30;;;;;;;14.75;2.75;;;;;;;-148.15;100.00;61821.78;5055833;28;20032;-94
2024/01/03 02:12:56;;;;;;;24.10;2.70;;;;;;;-148.15;100.00;61821.78;5051946;28;20065;-95
2024/01/03 02:15:23;;;;;;;22.85;3.05;;;;;;;-148.15;100.00;61821.78;5051572;28;20037;-95
2024/01/03 02:17:51;;;;;;;16.37;2.77;;;;;;;-148.15;100.00;61821.78;5049925;28;20035;-93
2024/01/03 02:20:16;;;;;;;19.75;3.28;;;;;;;-148.15;100.00;61821.78;5049322;28;20080;-94
2024/01/03 02:22:42;;;;;;;23.77;3.27;;;;;;;-148.15;100.00;61821.78;5051588;28;20113;-94
2024/01/03 02:25:10;;;;;;;15.73;2.40;;;;;;;-148.15;100.00;61821.78;5050100;28;20041;-95
2024/01/03 02:27:36;;;;;;;19.83;2.60;;;;;;;-148.15;100.00;61821.78;5052001;28;20025;-94
2024/01/03 02:30:02;;;;;;;22.33;3.20;;;;;;;-148.15;100.00;61821.78;5034140;28;20380;-94
2024/01/03 02:32:27;;;;;;;27.30;3.60;;;;;;;-148.15;100.00;61821.78;5054948;28;20032;-93
2024/01/03 02:34:52;;;;;;;24.70;2.83;;;;;;;-148.15;100.00;61821.78;5051597;28;20303;-94
2024/01/03 02:37:22;;;;;;;19.93;3.13;;;;;;;-148.15;100.00;61821.78;5054038;28;20021;-94
2024/01/03 02:39:47;;;;;;;20.05;2.90;;;;;;;-148.15;100.00;61821.78;5051403;28;20121;-94
2024/01/03 02:42:12;;;;;;;27.03;3.13;;;;;;;-148.15;100.00;61821.78;5051594;28;20839;-93
2024/01/03 02:44:38;;;;;;;21.40;2.70;;;;;;;-148.15;100.00;61821.78;5051721;28;20037;-93
2024/01/03 02:47:03;;;;;;;21.47;2.80;;;;;;;-148.15;100.00;61821.78;5051264;28;20021;-94
2024/01/03 02:49:28;;;;;;;14.13;2.50;;;;;;;-148.15;100.00;61821.78;5053055;28;20029;-94
2024/01/03 02:51:54;;;;;;;20.67;2.80;;;;;;;-148.15;100.00;61821.78;5062918;28;20280;-94
2024/01/03 02:54:19;;;;;;;20.37;2.80;;;;;;;-148.15;100.00;61821.78;5068330;28;20024;-94
2024/01/03 02:56:44;;;;;;;15.33;2.67;;;;;;;-148.15;100.00;61821.78;5077259;28;20127;-95
2024/01/03 02:59:10;;;;;;;21.23;3.00;;;;;;;-148.15;100.00;61821.78;5061549;28;20056;-94
2024/01/03 03:01:35;;;;;;;24.37;3.20;;;;;;;-148.15;100.00;61821.78;5053805;28;20373;-95
2024/01/03 03:04:01;;;;;;;21.25;2.67;;;;;;;-148.15;100.00;61821.78;5057053;28;20441;-95
2024/01/03 03:06:26;;;;;;;20.70;3.13;;;;;;;-148.15;100.00;61821.78;5059468;28;20031;-94
2024/01/03 03:08:52;;;;;;;19.83;3.23;;;;;;;-148.15;100.00;61821.78;5057663;28;20032;-95
2024/01/03 03:11:18;;;;;;;20.55;2.65;;;;;;;-148.15;100.00;61821.78;5058283;28;20112;-94
2024/01/03 03:13:43;;;;;;;13.90;2.20;;;;;;;-148.15;100.00;61821.78;5092132;28;20097;-94
2024/01/03 03:16:08;;;;;;;20.27;3.07;;;;;;;-148.15;100.00;61821.78;5078336;28;20264;-93
2024/01/03 03:18:34;;;;;;;17.70;2.90;;;;;;;-148.15;100.00;61821.78;5078784;28;20013;-93
2024/01/03 03:21:00;;;;;;;25.23;3.50;;;;;;;-148.15;100.00;61821.78;5078096;28;20033;-93
2024/01/03 03:23:26;;;;;;;17.90;2.72;;;;;;;-148.15;100.00;61821.78;5057721;28;20009;-93
2024/01/03 03:25:51;;;;;;;27.55;3.22;;;;;;;-148.15;100.00;61821.78;5071921;28;20079;-94
2024/01/03 03:28:17;;;;;;;17.93;3.27;;;;;;;-148.15;100.00;61821.78;5078364;28;20081;-95
2024/01/03 03:30:42;;;;;;;21.55;3.20;;;;;;;-148.15;100.00;61821.78;5077170;28;20023;-95
2024/01/03 03:33:16;;;;;;;32.83;3.30;;;;;;;-148.15;100.00;61821.78;5060138;28;20044;-94
2024/01/03 03:35:41;;;;;;;24.45;3.58;;;;;;;-148.15;100.00;61821.78;5055323;28;20033;-95
2024/01/03 03:38:06;;;;;;;21.37;3.70;;;;;;;-148.15;100.00;61821.78;5056774;28;20013;-94
2024/01/03 03:40:32;;;;;;;29.33;3.90;;;;;;;-148.15;100.00;61821.78;5056767;28;20032;-95
2024/01/03 03:42:57;;;;;;;18.40;2.70;;;;;;;-148.15;100.00;61821.78;5072738;28;20028;-95
2024/01/03 03:45:23;;;;;;;22.93;3.00;;;;;;;-148.15;100.00;61821.78;5077517;28;20433;-95
2024/01/03 03:47:48;;;;;;;27.50;2.97;;;;;;;-148.15;100.00;61821.78;5077302;28;20021;-96
2024/01/03 03:50:13;;;;;;;25.53;2.93;;;;;;;-148.15;100.00;61821.78;5075833;28;20032;-94
2024/01/03 03:52:40;;;;;;;25.80;3.22;;;;;;;-148.15;100.00;61821.78;5066230;28;20727;-95
2024/01/03 03:55:06;;;;;;;25.57;3.23;;;;;;;-148.15;100.00;61821.78;5053107;28;20028;-94
2024/01/03 03:57:31;;;;;;;27.23;2.70;;;;;;;-148.15;100.00;61821.78;5052730;28;20272;-95
2024/01/03 03:59:57;;;;;;;21.10;2.83;;;;;;;-148.15;100.00;61821.78;5052916;28;20074;-95
2024/01/03 04:02:23;;;;;;;25.07;3.17;;;;;;;-148.15;100.00;61821.78;5051833;28;20045;-94
2024/01/03 04:04:49;;;;;;;23.58;2.75;;;;;;;-148.15;100.00;61821.78;5054155;28;20108;-94
2024/01/03 04:07:16;;;;;;;28.67;3.40;;;;;;;-148.15;100.00;61821.78;5052707;28;20487;-95
2024/01/03 04:09:44;;;;;;;23.10;2.63;;;;;;;-148.15;100.00;61821.78;5052721;28;20088;-94
2024/01/03 04:12:10;;;;;;;25.07;2.90;;;;;;;-148.15;100.00;61821.78;5045349;28;20040;-94
2024/01/03 04:14:39;;;;;;;25.07;2.70;;;;;;;-148.15;100.00;61821.78;5048897;28;20295;-94
2024/01/03 04:17:04;;;;;;;28.65;3.47;;;;;;;-148.15;100.00;61821.78;5044749;28;20037;-93
2024/01/03 04:19:30;;;;;;;22.90;2.90;;;;;;;-148.15;100.00;61821.78;5052131;28;20017;-94
2024/01/03 04:21:57;;;;;;;21.58;2.60;;;;;;;-148.15;100.00;61821.78;5050111;28;20567;-94
2024/01/03 04:24:23;;;;;;;14.27;1.95;;;;;;;-148.15;100.00;61821.78;5053961;28;20025;-94
2024/01/03 04:26:48;;;;;;;15.73;1.90;;;;;;;-148.15;100.00;61821.78;5051107;28;20031;-93
2024/01/03 04:29:14;;;;;;;14.17;2.10;;;;;;;-148.15;100.00;61821.78;5051464;28;20271;-94
2024/01/03 04:31:39;;;;;;;17.40;2.40;;;;;;;-148.15;100.00;61821.78;5053729;28;20017;-93
2024/01/03 04:34:05;;;;;;;11.43;2.33;;;;;;;-148.15;100.00;61821.78;5055920;28;20025;-93
2024/01/03 04:36:30;;;;;;;24.00;2.13;;;;;;;-148.15;100.00;61821.78;5051183;28;20021;-94
2024/01/03 04:38:55;;;;;;;14.50;1.93;;;;;;;-148.15;100.00;61821.78;5052779;28;20329;-95
2024/01/03 04:41:21;;;;;;;15.50;2.07;;;;;;;-148.15;100.00;61821.78;5051597;28;20063;-93
2024/01/03 04:43:46;;;;;;;11.10;1.73;;;;;;;-148.15;100.00;61821.78;5051036;28;20028;-93
2024/01/03 04:46:11;;;;;;;14.57;2.00;;;;;;;-148.15;100.00;61821.78;5052286;28;20564;-93
2024/01/03 04:48:36;;;;;;;15.43;1.97;;;;;;;-148.15;100.00;61821.78;5052460;28;20048;-95
2024/01/03 04:51:02;;;;;;;17.87;1.80;;;;;;;-148.15;100.00;61821.78;5051733;28;20765;-94
2024/01/03 04:53:27;;;;;;;12.80;1.90;;;;;;;-148.15;100.00;61821.78;5055177;28;20032;-93
2024/01/03 04:55:53;;;;;;;9.10;1.33;;;;;;;-148.15;100.00;61821.78;5072144;28;20040;-93
2024/01/03 04:58:19;;;;;;;8.73;1.20;;;;;;;-148.15;100.00;61821.78;5051650;28;20453;-93
2024/01/03 05:00:46;;;;;;;14.65;1.42;;;;;;;-148.15;100.00;61821.78;5049420;28;20043;-92
2024/01/03 05:03:11;;;;;;;10.85;1.40;;;;;;;-148.15;100.00;61821.78;5052673;28;20030;-93
2024/01/03 05:05:37;;;;;;;9.07;1.40;;;;;;;-148.15;100.00;61821.78;5050067;28;20025;-93
2024/01/03 05:08:02;;;;;;;9.88;1.35;;;;;;;-148.15;100.00;61821.78;5051798;28;20028;-91
2024/01/03 05:10:27;;;;;;;8.93;1.90;;;;;;;-148.15;100.00;61821.78;5049141;28;20044;-93
2024/01/03 05:12:53;;;;;;;10.20;1.13;;;;;;;-148.15;100.00;61821.78;5061108;28;20075;-92
2024/01/03 05:15:19;;;;;;;11.63;1.27;;;;;;;-148.15;100.00;61821.78;5059953;28;20067;-93
2024/01/03 05:17:46;;;;;;;10.00;0.90;;;;;;;-148.15;100.00;61821.78;5053748;28;20033;-94
2024/01/03 05:20:12;;;;;;;9.57;1.05;;;;;;;-148.15;100.00;61821.78;5053059;28;20035;-93
2024/01/03 05:22:37;;;;;;;11.70;1.23;;;;;;;-148.15;100.00;61821.78;5053203;28;20024;-93
2024/01/03 05:25:03;;;;;;;11.13;1.50;;;;;;;-148.15;100.00;61821.78;5051665;28;20037;-93
2024/01/03 05:27:29;;;;;;;11.05;1.40;;;;;;;-148.15;100.00;61821.78;5050409;28;20102;-94
2024/01/03 05:29:54;;;;;;;7.93;1.43;;;;;;;-148.15;100.00;61821.78;5048275;28;20660;-95
2024/01/03 05:32:19;;;;;;;8.30;1.30;;;;;;;-148.15;100.00;61821.78;5049823;28;20095;-94
2024/01/03 05:34:45;;;;;;;9.50;1.17;;;;;;;-148.15;100.00;61821.78;5051551;28;20040;-94
2024/01/03 05:37:10;;;;;;;8.15;1.30;;;;;;;-148.15;100.00;61821.78;5050251;28;20029;-93
2024/01/03 05:39:36;;;;;;;9.27;1.13;;;;;;;-148.15;100.00;61821.78;5051594;28;20031;-93
2024/01/03 05:42:02;;;;;;;8.60;1.25;;;;;;;-148.15;100.00;61821.78;5050387;28;20029;-93
2024/01/03 05:44:27;;;;;;;10.53;1.60;;;;;;;-148.15;100.00;61821.78;5051778;28;20036;-93
2024/01/03 05:46:52;;;;;;;7.30;1.47;;;;;;;-148.15;100.00;61821.78;5049811;28;20040;-94
2024/01/03 05:49:18;;;;;;;8.20;1.40;;;;;;;-148.15;100.00;61821.78;5051843;28;20083;-93
2024/01/03 05:51:43;;;;;;;8.43;1.20;;;;;;;-148.15;100.00;61821.78;5039952;28;20557;-94
2024/01/03 05:54:08;;;;;;;10.80;1.30;;;;;;;-148.15;100.00;61821.78;5053332;28;20036;-96
2024/01/03 05:56:33;;;;;;;8.40;1.20;;;;;;;-148.15;100.00;61821.78;5055181;28;20029;-95
2024/01/03 05:58:59;;;;;;;9.03;0.97;;;;;;;-148.15;100.00;61821.78;5054739;28;20456;-93
2024/01/03 06:01:24;;;;;;;7.70;1.33;;;;;;;-148.15;100.00;61821.78;5058629;28;20468;-93
2024/01/03 06:03:49;;;;;;;9.40;1.53;;;;;;;-148.15;100.00;61821.78;5053334;28;20033;-93
2024/01/03 06:06:16;;;;;;;9.87;1.30;;;;;;;-148.15;100.00;61821.78;5059706;28;20029;-96
2024/01/03 06:08:41;;;;;;;10.50;1.65;;;;;;;-148.15;100.00;61821.78;5062195;28;20087;-94
2024/01/03 06:11:09;;;;;;;9.97;1.67;;;;;;;-148.15;100.00;61821.78;5060356;28;20056;-96
2024/01/03 06:13:34;;;;;;;14.00;1.63;;;;;;;-148.15;100.00;61821.78;5075773;28;20024;-96
2024/01/03 06:15:59;;;;;;;11.38;1.70;;;;;;;-148.15;100.00;61821.78;5077567;28;20027;-96
2024/01/03 06:18:25;;;;;;;9.53;1.30;;;;;;;-148.15;100.00;61821.78;5057522;28;20021;-94
2024/01/03 06:20:50;;;;;;;10.53;2.07;;;;;;;-148.15;100.00;61821.78;5052774;28;20033;-91
2024/01/03 06:23:15;;;;;;;7.53;1.60;;;;;;;-148.15;100.00;61821.78;5050608;28;20389;-92
2024/01/03 06:25:40;;;;;;;9.03;1.33;;;;;;;-148.15;100.00;61821.78;5053600;28;20120;-91
2024/01/03 06:28:06;;;;;;;10.17;1.27;;;;;;;-148.15;100.00;61821.78;5053218;28;20116;-92
2024/01/03 06:30:31;;;;;;;13.73;1.30;;;;;;;-148.15;100.00;61821.78;5050776;28;20049;-91
2024/01/03 06:32:56;;;;;;;12.43;1.50;;;;;;;-148.15;100.00;61821.78;5037155;28;20061;-92
2024/01/03 06:35:22;;;;;;;9.55;1.00;;;;;;;-148.15;100.00;61821.78;5051441;28;20093;-92
2024/01/03 06:37:47;;;;;;;8.30;1.10;;;;;;;-148.15;100.00;61821.78;5053054;28;20477;-90
2024/01/03 06:40:13;;;;;;;8.27;1.10;;;;;;;-148.15;100.00;61821.78;5051358;28;20506;-88
2024/01/03 06:42:38;;;;;;;5.50;0.80;;;;;;;-148.15;100.00;61821.78;5053007;28;20033;-89
2024/01/03 06:45:04;;;;;;;10.03;1.00;;;;;;;-148.15;100.00;61821.78;5052211;28;20029;-90
2024/01/03 06:47:31;;;;;;;4.10;0.80;;;;;;;-148.15;100.00;61821.78;5052291;28;20107;-93
2024/01/03 06:49:56;;;;;;;9.05;1.25;;;;;;;-148.15;100.00;61821.78;5050521;28;20032;-89
2024/01/03 06:52:21;;;;;;;9.63;0.97;;;;;;;-148.15;100.00;61821.78;5068742;28;20044;-89
2024/01/03 06:54:47;;;;;;;6.63;0.80;;;;;;;-148.15;100.00;61821.78;5067285;28;20037;-90
2024/01/03 06:57:12;;;;;;;10.00;0.93;;;;;;;-148.15;100.00;61821.78;5052814;28;20112;-90
2024/01/03 06:59:37;;;;;;;6.00;0.90;;;;;;;-148.15;100.00;61821.78;5050088;28;20394;-89
2024/01/03 07:02:03;;;;;;;6.80;0.80;;;;;;;-148.15;100.00;61821.78;5048885;28;20036;-89
2024/01/03 07:04:29;;;;;;;4.20;0.60;;;;;;;-148.15;100.00;61821.78;5053123;28;20048;-91
2024/01/03 07:06:54;;;;;;;8.77;0.87;;;;;;;-148.15;100.00;61821.78;5051248;28;20288;-90
2024/01/03 07:09:20;;;;;;;69.20;26.80;;;;;;;-148.15;100.00;61821.78;5051679;28;20064;-90
2024/01/03 07:11:45;;;;;;;206.20;60.10;;;;;;;-148.15;100.00;61821.78;5048741;28;20746;-89
2024/01/03 07:14:13;;;;;;;40.10;11.07;;;;;;;-148.15;100.00;61821.78;5051152;28;20468;-89
2024/01/03 07:16:39;;;;;;;33.95;9.45;;;;;;;-148.15;100.00;61821.78;5051705;28;20052;-92
2024/01/03 07:19:04;;;;;;;12.70;3.43;;;;;;;-148.15;100.00;61821.78;5051207;28;20481;-91
2024/01/03 07:21:30;;;;;;;14.43;3.50;;;;;;;-148.15;100.00;61821.78;5046354;28;20033;-88
2024/01/03 07:23:55;;;;;;;4.33;1.17;;;;;;;-148.15;100.00;61821.78;5050514;28;20013;-88
2024/01/03 07:26:21;;;;;;;3.65;0.70;;;;;;;-148.15;100.00;61821.78;5051859;28;20433;-88
2024/01/03 07:28:46;;;;;;;1.40;0.40;;;;;;;-148.15;100.00;61821.78;5055631;28;20025;-87
2024/01/03 07:31:11;;;;;;;2.13;0.40;;;;;;;-148.15;100.00;61821.78;5049162;28;20037;-88
2024/01/03 07:33:39;;;;;;;4.63;0.40;;;;;;;-148.15;100.00;61821.78;5049450;28;20029;-87
2024/01/03 07:36:05;;;;;;;0.70;0.40;;;;;;;-148.15;100.00;61821.78;5048016;28;20041;-88
2024/01/03 07:38:30;;;;;;;3.75;0.43;;;;;;;-148.15;100.00;61821.78;5049497;28;20029;-88
2024/01/03 07:40:56;;;;;;;2.80;0.50;;;;;;;-148.15;100.00;61821.78;5052763;28;20025;-88
2024/01/03 07:43:21;;;;;;;2.37;0.47;;;;;;;-148.15;100.00;61821.78;5051729;28;20036;-87
2024/01/03 07:45:46;;;;;;;5.80;0.93;;;;;;;-148.15;100.00;61821.78;5049810;28;20473;-88
2024/01/03 07:48:11;;;;;;;3.45;0.90;;;;;;;-148.15;100.00;61821.78;5051511;28;20044;-88
2024/01/03 07:50:37;;;;;;;1.60;1.10;;;;;;;-148.15;100.00;61821.78;5050141;28;20033;-88
2024/01/03 07:53:02;;;;;;;2.80;1.00;;;;;;;-148.15;100.00;61821.78;5049762;28;20029;-87
2024/01/03 07:55:28;;;;;;;4.23;1.03;;;;;;;-148.15;100.00;61821.78;5050639;28;20040;-87
2024/01/03 07:57:53;;;;;;;4.63;1.00;;;;;;;-148.15;100.00;61821.78;5049623;28;20039;-88
2024/01/03 08:00:18;;;;;;;4.50;1.40;;;;;;;-148.15;100.00;61821.78;5050594;28;20020;-87
2024/01/03 08:02:44;;;;;;;3.70;1.30;;;;;;;-148.15;100.00;61821.78;5046882;28;20017;-87
2024/01/03 08:05:09;;;;;;;5.93;1.77;;;;;;;-148.15;100.00;61821.78;5044061;28;20013;-86
2024/01/03 08:07:35;;;;;;;6.25;1.75;;;;;;;-148.15;100.00;61821.78;5048412;28;20431;-87
2024/01/03 08:10:00;;;;;;;9.13;1.60;;;;;;;-148.15;100.00;61821.78;5046532;28;20037;-86
2024/01/03 08:12:25;;;;;;;10.50;1.50;;;;;;;-148.15;100.00;61821.78;5049837;28;20480;-86
2024/01/03 08:14:51;;;;;;;7.23;1.20;;;;;;;-148.15;100.00;61821.78;5049657;28;20028;-86
2024/01/03 08:17:16;;;;;;;10.50;1.60;;;;;;;-148.15;100.00;61821.78;5047587;28;20032;-87
2024/01/03 08:19:41;;;;;;;6.60;0.90;;;;;;;-148.15;100.00;61821.78;5042952;28;20496;-88
2024/01/03 08:22:07;;;;;;;8.27;1.80;;;;;;;-148.15;100.00;61821.78;5049559;28;21021;-87
2024/01/03 08:24:32;;;;;;;7.27;1.07;;;;;;;-148.15;100.00;61821.78;5049750;28;20037;-88
2024/01/03 08:26:57;;;;;;;14.17;1.33;;;;;;;-148.15;100.00;61821.78;5041705;28;20040;-87
2024/01/03 08:29:23;;;;;;;6.93;1.10;;;;;;;-148.15;100.00;61821.78;5044524;28;20118;-88
2024/01/03 08:31:49;;;;;;;14.85;1.80;;;;;;;-148.15;100.00;61821.78;5042046;28;20480;-85
2024/01/03 08:34:14;;;;;;;7.37;0.90;;;;;;;-148.15;100.00;61821.78;5042077;28;20036;-87
2024/01/03 08:36:45;;;;;;;10.80;1.83;;;;;;;-148.15;100.00;61821.78;5043915;28;20029;-87
2024/01/03 08:39:10;;;;;;;12.87;1.30;;;;;;;-148.15;100.00;61821.78;5049968;28;20037;-87
2024/01/03 08:41:36;;;;;;;9.65;1.15;;;;;;;-148.15;100.00;61821.78;5049004;28;20029;-87
2024/01/03 08:44:03;;;;;;;12.25;1.48;;;;;;;-148.15;100.00;61821.78;5048121;28;20021;-87
2024/01/03 08:46:31;;;;;;;12.93;1.33;;;;;;;-148.15;100.00;61821.78;5052699;28;20033;-87
2024/01/03 08:48:56;;;;;;;18.45;1.52;;;;;;;-148.15;100.00;61821.78;5049657;28;20048;-87
2024/01/03 08:51:22;;;;;;;21.77;1.88;;;;;;;-148.15;100.00;61821.78;5048535;28;20529;-86
2024/01/03 08:53:48;;;;;;;14.83;1.90;;;;;;;-148.15;100.00;61821.78;5048338;28;20108;-87
2024/01/03 08:56:14;;;;;;;14.88;1.60;;;;;;;-148.15;100.00;61821.78;5046351;28;20036;-86
2024/01/03 08:58:41;;;;;;;15.30;1.90;;;;;;;-148.15;100.00;61821.78;5048677;28;20056;-87
2024/01/03 09:01:07;;;;;;;14.82;1.40;;;;;;;-148.15;100.00;61821.78;5048800;28;20102;-87
2024/01/03 09:03:32;;;;;;;17.13;2.20;;;;;;;-148.15;100.00;61821.78;5049178;28;20029;-86
2024/01/03 09:05:57;;;;;;;19.53;2.33;;;;;;;-148.15;100.00;61821.78;5045382;28;20536;-88
2024/01/03 09:08:23;;;;;;;17.37;2.10;;;;;;;-148.15;100.00;61821.78;5047637;28;20092;-88
2024/01/03 09:10:48;;;;;;;20.08;2.13;;;;;;;-148.15;100.00;61821.78;5048184;28;20127;-87
2024/01/03 09:13:14;;;;;;;16.53;1.90;;;;;;;-148.15;100.00;61821.78;5049308;28;20039;-87
2024/01/03 09:15:39;;;;;;;19.63;2.47;;;;;;;-148.15;100.00;61821.78;5050524;28;20025;-87
2024/01/03 09:18:06;;;;;;;21.87;2.47;;;;;;;-148.15;100.00;61821.78;5049223;28;20323;-89
2024/01/03 09:20:31;;;;;;;23.30;2.55;;;;;;;-148.15;100.00;61821.78;5049070;28;20059;-87
2024/01/03 09:22:58;;;;;;;23.40;2.60;;;;;;;-148.15;100.00;61821.78;5047134;28;20514;-87
2024/01/03 09:25:23;;;;;;;26.63;2.50;;;;;;;-148.15;100.00;61821.78;5048561;28;20104;-87
2024/01/03 09:27:49;;;;;;;30.00;2.73;;;;;;;-148.15;100.00;61821.78;5049094;28;20112;-87
2024/01/03 09:30:14;;;;;;;20.90;2.43;;;;;;;-148.15;100.00;61821.78;5048895;28;20024;-87
2024/01/03 09:32:41;;;;;;;22.83;2.77;;;;;;;-148.15;100.00;61821.78;5050134;28;20044;-87
2024/01/03 09:35:06;;;;;;;25.73;2.77;;;;;;;-148.15;100.00;61821.78;5047206;28;20303;-87
2024/01/03 09:37:32;;;;;;;27.90;3.00;;;;;;;-148.15;100.00;61821.78;5048108;28;20114;-86
2024/01/03 09:39:57;;;;;;;25.27;3.40;;;;;;;-148.15;100.00;61821.78;5047913;28;20108;-87
2024/01/03 09:42:23;;;;;;;18.87;1.97;;;;;;;-148.15;100.00;61821.78;5049614;28;20484;-87
2024/01/03 09:44:50;;;;;;;18.50;2.70;;;;;;;-148.15;100.00;61821.78;5049039;28;20025;-87
2024/01/03 09:47:16;;;;;;;14.95;2.15;;;;;;;-148.15;100.00;61821.78;5049308;28;20033;-87
2024/01/03 09:49:44;;;;;;;21.35;2.78;;;;;;;-148.15;100.00;61821.78;5048772;28;20131;-88
2024/01/03 09:52:12;;;;;;;24.87;2.20;;;;;;;-148.15;100.00;61821.78;5048955;28;20476;-87
2024/01/03 09:54:38;;;;;;;21.92;2.42;;;;;;;-148.15;100.00;61821.78;5049212;28;20021;-87
2024/01/03 09:57:05;;;;;;;19.17;2.97;;;;;;;-148.15;100.00;61821.78;5048261;28;20025;-87
2024/01/03 09:59:30;;;;;;;17.92;2.22;;;;;;;-148.15;100.00;61821.78;5051360;28;20096;-88
2024/01/03 10:01:58;;;;;;;20.90;2.33;;;;;;;-148.15;100.00;61821.78;5052926;28;20110;-87
2024/01/03 10:04:23;;;;;;;25.65;2.42;;;;;;;-148.15;100.00;61821.78;5051372;28;20033;-88
2024/01/03 10:06:53;;;;;;;21.30;2.83;;;;;;;-148.15;100.00;61821.78;5053125;28;20025;-87
2024/01/03 10:09:19;;;;;;;21.25;2.63;;;;;;;-148.15;100.00;61821.78;5053276;28;20048;-88
2024/01/03 10:11:45;;;;;;;15.27;2.10;;;;;;;-148.15;100.00;61821.78;5052323;28;20064;-87
2024/01/03 10:14:17;;;;;;;23.73;3.10;;;;;;;-148.15;100.00;61821.78;5052436;28;20033;-87
2024/01/03 10:16:45;;;;;;;21.77;2.50;;;;;;;-148.15;100.00;61821.78;5052742;28;20110;-87
2024/01/03 10:19:12;;;;;;;25.45;3.15;;;;;;;-148.15;100.00;61821.78;5052311;28;20036;-88
2024/01/03 10:21:45;;;;;;;24.80;3.45;;;;;;;-148.15;100.00;61821.78;5052244;28;20067;-88
2024/01/03 10:24:11;;;;;;;21.60;3.03;;;;;;;-148.15;100.00;61821.78;5051923;28;20032;-89
2024/01/03 10:26:36;;;;;;;14.57;2.57;;;;;;;-148.15;100.00;61821.78;5051560;28;20287;-86
2024/01/03 10:29:29;;;;;;;27.70;3.50;;;;;;;-148.15;100.00;61821.78;5051107;28;20369;-87
2024/01/03 10:31:56;;;;;;;19.23;2.92;;;;;;;-148.15;100.00;61821.78;5032736;28;20053;-88
2024/01/03 10:34:23;;;;;;;25.60;3.58;;;;;;;-148.15;100.00;61821.78;5052111;28;20028;-86
2024/01/03 10:36:50;;;;;;;24.27;2.93;;;;;;;-148.15;100.00;61821.78;5049786;28;20079;-87
2024/01/03 10:39:19;;;;;;;22.40;3.15;;;;;;;-148.15;100.00;61821.78;5053129;28;20017;-86
2024/01/03 10:41:46;;;;;;;18.60;2.67;;;;;;;-148.15;100.00;61821.78;5051683;28;20036;-86
2024/01/03 10:44:14;;;;;;;21.45;3.42;;;;;;;-148.15;100.00;61821.78;5050673;28;20116;-86
2024/01/03 10:46:46;;;;;;;20.33;2.55;;;;;;;-148.15;100.00;61821.78;5059172;28;20048;-85
2024/01/03 10:49:12;;;;;;;22.17;2.78;;;;;;;-148.15;100.00;61821.78;5052509;28;20438;-87
2024/01/03 10:51:42;;;;;;;24.73;3.30;;;;;;;-148.15;100.00;61821.78;5049868;28;20020;-86
2024/01/03 10:54:14;;;;;;;21.73;2.70;;;;;;;-148.15;100.00;61821.78;5052531;28;20024;-87
2024/01/03 10:56:50;;;;;;;22.02;2.67;;;;;;;-148.15;100.00;61821.78;5052784;28;20031;-86
2024/01/03 10:59:17;;;;;;;19.33;3.53;;;;;;;-148.15;100.00;61821.78;5051373;28;20017;-86